createdAt,value
2023-02-22T00:00:59.875Z,98906.69
2023-02-22T00:03:32.323Z,98901.44
2023-02-22T00:06:05.683Z,98913.53
2023-02-22T00:08:36.122Z,98913.75
2023-02-22T00:11:08.944Z,98919.03
2023-02-22T00:13:38.215Z,98912.97
2023-02-22T00:16:06.465Z,98915.66
2023-02-22T00:18:33.594Z,98894.59
2023-02-22T00:21:01.685Z,98908.25
2023-02-22T00:23:31.082Z,98905.47
2023-02-22T00:26:00.175Z,98913.25
2023-02-22T00:28:27.461Z,98891.19
2023-02-22T00:30:55.047Z,98906.41
2023-02-22T00:33:22.828Z,98908.16
2023-02-22T00:35:50.108Z,98915.88
2023-02-22T00:38:19.444Z,98898.88
2023-02-22T00:40:46.708Z,98903.06
2023-02-22T00:43:14.691Z,98901.31
2023-02-22T00:45:42.345Z,98888.72
2023-02-22T00:48:10.547Z,98897.97
2023-02-22T00:50:38.030Z,98904.78
2023-02-22T00:53:07.296Z,98892.91
2023-02-22T00:55:37.065Z,98896.22
2023-02-22T00:58:05.311Z,98895.38
2023-02-22T01:00:41.716Z,98883.63
2023-02-22T01:03:13.533Z,98892.00
2023-02-22T01:05:40.770Z,98885.50
2023-02-22T01:08:10.781Z,98886.31
2023-02-22T01:10:39.586Z,98884.72
2023-02-22T01:13:12.435Z,98883.94
2023-02-22T01:15:43.231Z,98883.25
2023-02-22T01:18:12.561Z,98882.38
2023-02-22T01:20:39.682Z,98862.94
2023-02-22T01:23:08.042Z,98870.72
2023-02-22T01:25:36.073Z,98852.47
2023-02-22T01:28:05.716Z,98876.69
2023-02-22T01:30:35.826Z,98883.66
2023-02-22T01:33:06.146Z,98878.53
2023-02-22T01:35:37.188Z,98879.56
2023-02-22T01:38:04.270Z,98875.22
2023-02-22T01:40:39.266Z,98861.06
2023-02-22T01:43:20.077Z,98868.59
2023-02-22T01:45:52.976Z,98868.72
2023-02-22T01:48:49.144Z,98872.16
2023-02-22T01:51:18.734Z,98872.22
2023-02-22T01:53:59.871Z,98868.06
2023-02-22T01:56:29.732Z,98859.56
2023-02-22T01:59:10.281Z,98851.78
2023-02-22T02:01:42.937Z,98851.88
2023-02-22T02:04:19.555Z,98827.47
2023-02-22T02:06:47.361Z,98843.38
2023-02-22T02:09:34.683Z,98821.75
2023-02-22T02:12:05.056Z,98848.69
2023-02-22T02:14:32.487Z,98839.28
2023-02-22T02:17:01.485Z,98841.00
2023-02-22T02:20:11.596Z,98842.06
2023-02-22T02:22:57.258Z,98842.06
2023-02-22T02:26:03.854Z,98839.53
2023-02-22T02:28:39.652Z,98837.88
2023-02-22T02:31:31.230Z,98828.56
2023-02-22T02:34:50.552Z,98827.69
2023-02-22T02:37:57.549Z,98828.63
2023-02-22T02:40:50.894Z,98802.47
2023-02-22T02:43:31.987Z,98816.75
2023-02-22T02:46:09.702Z,98809.94
2023-02-22T02:48:43.563Z,98810.16
2023-02-22T02:51:14.526Z,98799.31
2023-02-22T02:53:46.540Z,98795.66
2023-02-22T02:56:13.386Z,98800.78
2023-02-22T02:58:50.464Z,98802.47
2023-02-22T03:01:50.215Z,98795.53
2023-02-22T03:04:45.139Z,98780.34
2023-02-22T03:07:45.793Z,98765.22
2023-02-22T03:11:05.324Z,98788.84
2023-02-22T03:14:08.513Z,98793.88
2023-02-22T03:16:52.401Z,98773.59
2023-02-22T03:19:40.387Z,98783.59
2023-02-22T03:22:38.162Z,98780.09
2023-02-22T03:25:15.343Z,98774.44
2023-02-22T03:27:50.383Z,98774.50
2023-02-22T03:30:26.960Z,98773.59
2023-02-22T03:33:09.018Z,98745.94
2023-02-22T03:35:42.437Z,98768.56
2023-02-22T03:38:13.734Z,98768.47
2023-02-22T03:40:45.970Z,98769.44
2023-02-22T03:43:23.183Z,98769.56
2023-02-22T03:45:51.238Z,98746.69
2023-02-22T03:48:27.504Z,98768.69
2023-02-22T03:50:54.733Z,98760.28
2023-02-22T03:53:23.246Z,98765.44
2023-02-22T03:55:52.646Z,98730.25
2023-02-22T03:58:22.931Z,98768.13
2023-02-22T04:00:53.378Z,98743.06
2023-02-22T04:03:21.943Z,98768.03
2023-02-22T04:05:49.499Z,98740.63
2023-02-22T04:08:17.432Z,98771.00
2023-02-22T04:10:44.479Z,98755.91
2023-02-22T04:13:11.916Z,98766.81
2023-02-22T04:15:38.867Z,98769.34
2023-02-22T04:18:05.991Z,98761.06
2023-02-22T04:20:34.841Z,98761.16
2023-02-22T04:23:01.804Z,98772.94
2023-02-22T04:25:28.697Z,98773.00
2023-02-22T04:27:55.725Z,98765.50
2023-02-22T04:30:23.394Z,98766.31
2023-02-22T04:32:50.395Z,98720.00
2023-02-22T04:35:17.347Z,98764.88
2023-02-22T04:37:44.524Z,98753.13
2023-02-22T04:40:11.714Z,98770.59
2023-02-22T04:42:39.847Z,98766.44
2023-02-22T04:45:09.222Z,98756.56
2023-02-22T04:47:37.427Z,98753.94
2023-02-22T04:50:07.483Z,98759.00
2023-02-22T04:52:34.503Z,98756.31
2023-02-22T04:55:01.531Z,98747.97
2023-02-22T04:57:28.508Z,98740.34
2023-02-22T04:59:55.616Z,98758.03
2023-02-22T05:02:22.764Z,98740.25
2023-02-22T05:04:50.474Z,98744.50
2023-02-22T05:07:17.705Z,98731.81
2023-02-22T05:09:44.636Z,98758.88
2023-02-22T05:12:11.491Z,98736.09
2023-02-22T05:14:39.046Z,98753.13
2023-02-22T05:17:06.208Z,98756.56
2023-02-22T05:19:33.100Z,98746.28
2023-02-22T05:22:00.285Z,98744.78
2023-02-22T05:24:27.384Z,98737.25
2023-02-22T05:26:54.404Z,98738.88
2023-02-22T05:29:21.359Z,98732.09
2023-02-22T05:31:48.479Z,98728.72
2023-02-22T05:34:16.047Z,98736.31
2023-02-22T05:36:42.987Z,98723.53
2023-02-22T05:39:09.973Z,98746.38
2023-02-22T05:41:36.995Z,98746.38
2023-02-22T05:44:04.200Z,98732.00
2023-02-22T05:46:31.265Z,98740.31
2023-02-22T05:48:58.202Z,98737.09
2023-02-22T05:51:25.181Z,98743.75
2023-02-22T05:53:52.575Z,98734.50
2023-02-22T05:56:28.668Z,98719.31
2023-02-22T05:58:56.952Z,98727.59
2023-02-22T06:01:24.510Z,98723.53
2023-02-22T06:03:52.401Z,98737.94
2023-02-22T06:06:22.234Z,98736.25
2023-02-22T06:08:49.925Z,98715.31
2023-02-22T06:11:17.242Z,98732.06
2023-02-22T06:13:51.563Z,98737.09
2023-02-22T06:16:21.329Z,98709.22
2023-02-22T06:18:49.134Z,98731.13
2023-02-22T06:21:17.530Z,98736.31
2023-02-22T06:23:44.685Z,98729.47
2023-02-22T06:26:11.648Z,98737.19
2023-02-22T06:28:38.604Z,98733.88
2023-02-22T06:31:05.856Z,98738.03
2023-02-22T06:33:33.030Z,98736.31
2023-02-22T06:36:00.233Z,98744.91
2023-02-22T06:38:27.786Z,98722.06
2023-02-22T06:40:57.903Z,98733.03
2023-02-22T06:43:25.768Z,98722.84
2023-02-22T06:45:53.691Z,98741.34
2023-02-22T06:48:20.736Z,98717.13
2023-02-22T06:50:47.733Z,98736.38
2023-02-22T06:53:14.642Z,98733.13
2023-02-22T06:55:41.535Z,98741.53
2023-02-22T06:58:08.430Z,98731.34
2023-02-22T07:00:35.466Z,98748.38
2023-02-22T07:03:04.714Z,98748.25
2023-02-22T07:05:31.652Z,98748.16
2023-02-22T07:08:05.309Z,98742.16
2023-02-22T07:10:34.318Z,98744.59
2023-02-22T07:13:02.301Z,98728.56
2023-02-22T07:15:31.582Z,98736.06
2023-02-22T07:17:59.498Z,98723.47
2023-02-22T07:20:29.683Z,98744.31
2023-02-22T07:22:56.637Z,98749.34
2023-02-22T07:25:24.159Z,98751.00
2023-02-22T07:27:52.493Z,98750.09
2023-02-22T07:30:34.048Z,98747.34
2023-02-22T07:33:07.606Z,98725.31
2023-02-22T07:35:39.565Z,98741.13
2023-02-22T07:38:08.210Z,98741.84
2023-02-22T07:40:35.882Z,98734.19
2023-02-22T07:43:16.238Z,98743.56
2023-02-22T07:45:44.019Z,98730.84
2023-02-22T07:48:16.927Z,98742.31
2023-02-22T07:50:44.420Z,98730.66
2023-02-22T07:53:15.944Z,98746.16
2023-02-22T07:55:43.634Z,98727.59
2023-02-22T07:58:15.157Z,98727.50
2023-02-22T08:00:44.163Z,98696.59
2023-02-22T08:03:13.462Z,98727.88
2023-02-22T08:05:44.631Z,98738.84
2023-02-22T08:08:11.594Z,98730.03
2023-02-22T08:10:38.605Z,98747.44
2023-02-22T08:13:06.065Z,98739.66
2023-02-22T08:15:39.225Z,98739.38
2023-02-22T08:18:12.525Z,98741.81
2023-02-22T08:20:42.333Z,98740.84
2023-02-22T08:23:11.161Z,98736.53
2023-02-22T08:25:38.058Z,98740.38
2023-02-22T08:28:11.879Z,98729.69
2023-02-22T08:30:42.774Z,98740.03
2023-02-22T08:33:14.381Z,98730.22
2023-02-22T08:35:41.812Z,98723.31
2023-02-22T08:38:16.980Z,98725.81
2023-02-22T08:40:43.991Z,98703.09
2023-02-22T08:43:11.060Z,98733.09
2023-02-22T08:45:38.021Z,98722.75
2023-02-22T08:48:05.129Z,98730.13
2023-02-22T08:50:33.692Z,98725.75
2023-02-22T08:53:02.739Z,98726.31
2023-02-22T08:55:34.416Z,98727.13
2023-02-22T08:58:03.100Z,98721.06
2023-02-22T09:00:33.285Z,98722.63
2023-02-22T09:03:10.660Z,98722.50
2023-02-22T09:05:37.634Z,98722.44
2023-02-22T09:08:05.151Z,98682.72
2023-02-22T09:10:34.459Z,98716.13
2023-02-22T09:13:02.328Z,98714.25
2023-02-22T09:15:30.645Z,98705.56
2023-02-22T09:17:57.637Z,98710.00
2023-02-22T09:20:25.970Z,98703.09
2023-02-22T09:22:53.861Z,98705.69
2023-02-22T09:25:21.380Z,98710.69
2023-02-22T09:27:53.268Z,98712.16
2023-02-22T09:30:32.136Z,98709.72
2023-02-22T09:33:06.994Z,98706.19
2023-02-22T09:35:36.281Z,98704.34
2023-02-22T09:38:08.167Z,98703.44
2023-02-22T09:40:45.097Z,98699.13
2023-02-22T09:44:01.132Z,98700.91
2023-02-22T09:46:42.056Z,98695.09
2023-02-22T09:49:21.985Z,98704.94
2023-02-22T09:52:18.741Z,98707.19
2023-02-22T09:55:30.864Z,98691.78
2023-02-22T09:58:02.841Z,98696.41
2023-02-22T10:00:34.293Z,98700.53
2023-02-22T10:03:21.071Z,98697.81
2023-02-22T10:06:11.845Z,98698.25
2023-02-22T10:08:39.437Z,98696.31
2023-02-22T10:11:23.328Z,98683.84
2023-02-22T10:14:19.957Z,98682.81
2023-02-22T10:17:00.968Z,98673.78
2023-02-22T10:19:57.873Z,98682.81
2023-02-22T10:23:07.042Z,98672.63
2023-02-22T10:25:38.102Z,98679.84
2023-02-22T10:28:27.528Z,98676.59
2023-02-22T10:31:04.449Z,98678.78
2023-02-22T10:33:38.575Z,98662.38
2023-02-22T10:36:06.398Z,98644.72
2023-02-22T10:38:35.000Z,98671.53
2023-02-22T10:41:11.030Z,98663.47
2023-02-22T10:43:41.666Z,98667.28
2023-02-22T10:46:14.750Z,98637.97
2023-02-22T10:48:45.980Z,98654.31
2023-02-22T10:51:14.038Z,98638.88
2023-02-22T10:53:41.600Z,98645.06
2023-02-22T10:56:24.503Z,98658.25
2023-02-22T10:59:02.440Z,98643.22
2023-02-22T11:01:32.603Z,98641.88
2023-02-22T11:04:14.771Z,98640.53
2023-02-22T11:06:46.353Z,98632.63
2023-02-22T11:09:22.691Z,98636.03
2023-02-22T11:12:07.625Z,98638.25
2023-02-22T11:14:34.495Z,98620.81
2023-02-22T11:17:07.097Z,98624.28
2023-02-22T11:19:36.357Z,98634.13
2023-02-22T11:22:19.404Z,98627.31
2023-02-22T11:24:56.139Z,98619.63
2023-02-22T11:27:33.683Z,98619.03
2023-02-22T11:30:32.532Z,98609.69
2023-02-22T11:33:23.389Z,98613.94
2023-02-22T11:35:59.503Z,98602.66
2023-02-22T11:38:30.557Z,98582.72
2023-02-22T11:41:32.322Z,98589.84
2023-02-22T11:44:23.629Z,98591.28
2023-02-22T11:46:53.470Z,98579.47
2023-02-22T11:49:20.485Z,98573.22
2023-02-22T11:52:28.241Z,98578.66
2023-02-22T11:55:36.516Z,98575.75
2023-02-22T11:58:40.845Z,98570.13
2023-02-22T12:01:22.386Z,98575.97
2023-02-22T12:04:40.987Z,98560.13
2023-02-22T12:07:26.586Z,98564.56
2023-02-22T12:10:18.986Z,98553.94
2023-02-22T12:13:12.252Z,98544.25
2023-02-22T12:16:21.728Z,98548.25
2023-02-22T12:19:31.008Z,98547.25
2023-02-22T12:22:04.501Z,98544.41
2023-02-22T12:24:41.378Z,98548.50
2023-02-22T12:27:20.569Z,98547.66
2023-02-22T12:29:56.870Z,98543.03
2023-02-22T12:32:35.749Z,98548.00
2023-02-22T12:35:14.700Z,98536.78
2023-02-22T12:38:14.811Z,98537.91
2023-02-22T12:41:38.425Z,98541.25
2023-02-22T12:44:35.465Z,98540.06
2023-02-22T12:47:05.552Z,98525.16
2023-02-22T12:49:44.108Z,98537.59
2023-02-22T12:52:57.861Z,98529.69
2023-02-22T12:55:32.503Z,98531.66
2023-02-22T12:58:39.803Z,98532.84
2023-02-22T13:01:24.234Z,98526.44
2023-02-22T13:03:51.545Z,98525.16
2023-02-22T13:06:34.367Z,98530.16
2023-02-22T13:09:14.208Z,98531.09
2023-02-22T13:12:14.886Z,98529.59
2023-02-22T13:15:14.808Z,98506.44
2023-02-22T13:18:12.625Z,98526.38
2023-02-22T13:21:04.760Z,98531.28
2023-02-22T13:23:46.714Z,98519.13
2023-02-22T13:26:23.825Z,98517.75
2023-02-22T13:29:21.700Z,98519.31
2023-02-22T13:31:48.762Z,98520.53
2023-02-22T13:34:36.770Z,98522.28
2023-02-22T13:37:12.667Z,98522.84
2023-02-22T13:40:13.729Z,98528.03
2023-02-22T13:43:11.437Z,98519.22
2023-02-22T13:46:12.891Z,98517.28
2023-02-22T13:48:58.306Z,98513.75
2023-02-22T13:52:00.033Z,98504.28
2023-02-22T13:54:46.229Z,98502.16
2023-02-22T13:57:25.055Z,98510.50
2023-02-22T14:00:20.974Z,98511.44
2023-02-22T14:03:07.904Z,98508.44
2023-02-22T14:05:41.554Z,98513.06
2023-02-22T14:08:28.925Z,98504.28
2023-02-22T14:10:56.946Z,98510.69
2023-02-22T14:13:33.293Z,98492.31
2023-02-22T14:16:00.387Z,98512.44
2023-02-22T14:18:36.389Z,98510.66
2023-02-22T14:21:13.064Z,98509.28
2023-02-22T14:23:41.896Z,98507.88
2023-02-22T14:26:27.442Z,98509.63
2023-02-22T14:29:15.571Z,98501.19
2023-02-22T14:31:46.412Z,98508.75
2023-02-22T14:34:22.962Z,98495.97
2023-02-22T14:37:05.221Z,98476.09
2023-02-22T14:39:35.204Z,98505.75
2023-02-22T14:42:24.415Z,98506.50
2023-02-22T14:45:12.746Z,98501.63
2023-02-22T14:47:44.033Z,98504.59
2023-02-22T14:50:45.158Z,98500.81
2023-02-22T14:53:30.145Z,98495.94
2023-02-22T14:56:06.982Z,98507.19
2023-02-22T14:58:45.891Z,98493.69
2023-02-22T15:01:48.931Z,98501.88
2023-02-22T15:04:27.816Z,98501.50
2023-02-22T15:06:57.661Z,98498.38
2023-02-22T15:09:31.070Z,98491.88
2023-02-22T15:12:05.521Z,98497.72
2023-02-22T15:14:38.959Z,98501.34
2023-02-22T15:17:24.858Z,98506.91
2023-02-22T15:19:52.672Z,98493.94
2023-02-22T15:22:31.599Z,98472.94
2023-02-22T15:25:02.103Z,98494.00
2023-02-22T15:27:29.618Z,98504.19
2023-02-22T15:30:05.083Z,98504.09
2023-02-22T15:32:49.933Z,98506.16
2023-02-22T15:35:30.130Z,98494.13
2023-02-22T15:38:15.860Z,98477.47
2023-02-22T15:40:45.134Z,98502.34
2023-02-22T15:43:28.533Z,98489.28
2023-02-22T15:45:57.836Z,98500.13
2023-02-22T15:48:26.812Z,98506.78
2023-02-22T15:51:10.558Z,98502.06
2023-02-22T15:53:49.716Z,98502.63
2023-02-22T15:56:24.535Z,98497.63
2023-02-22T15:58:59.577Z,98493.16
2023-02-22T16:01:27.073Z,98499.75
2023-02-22T16:03:57.718Z,98507.13
2023-02-22T16:06:35.357Z,98507.97
2023-02-22T16:09:15.678Z,98510.94
2023-02-22T16:11:45.402Z,98508.22
2023-02-22T16:14:31.734Z,98506.91
2023-02-22T16:17:30.883Z,98511.16
2023-02-22T16:20:00.894Z,98513.00
2023-02-22T16:22:34.482Z,98518.03
2023-02-22T16:25:19.705Z,98520.91
2023-02-22T16:27:50.863Z,98516.84
2023-02-22T16:30:23.968Z,98514.59
2023-02-22T16:32:53.572Z,98514.97
2023-02-22T16:35:20.591Z,98513.41
2023-02-22T16:37:50.295Z,98512.47
2023-02-22T16:40:26.295Z,98518.81
2023-02-22T16:42:53.412Z,98521.22
2023-02-22T16:45:22.052Z,98508.53
2023-02-22T16:47:53.673Z,98479.31
2023-02-22T16:50:22.013Z,98513.31
2023-02-22T16:52:48.857Z,98518.41
2023-02-22T16:55:17.903Z,98501.75
2023-02-22T16:57:45.022Z,98511.22
2023-02-22T17:00:19.029Z,98495.31
2023-02-22T17:02:45.879Z,98511.34
2023-02-22T17:05:16.669Z,98511.16
2023-02-22T17:07:43.617Z,98514.50
2023-02-22T17:10:20.064Z,98521.09
2023-02-22T17:12:50.500Z,98511.19
2023-02-22T17:15:34.967Z,98517.56
2023-02-22T17:18:13.934Z,98523.97
2023-02-22T17:20:40.873Z,98522.47
2023-02-22T17:23:09.854Z,98521.47
2023-02-22T17:25:43.239Z,98538.22
2023-02-22T17:28:10.496Z,98545.00
2023-02-22T17:30:39.155Z,98550.38
2023-02-22T17:33:09.582Z,98544.72
2023-02-22T17:35:39.403Z,98556.00
2023-02-22T17:38:07.416Z,98554.44
2023-02-22T17:40:37.183Z,98562.03
2023-02-22T17:43:08.748Z,98566.50
2023-02-22T17:45:39.491Z,98563.41
2023-02-22T17:48:08.933Z,98572.97
2023-02-22T17:50:41.353Z,98567.13
2023-02-22T17:53:10.903Z,98561.91
2023-02-22T17:55:40.693Z,98566.16
2023-02-22T17:58:14.626Z,98579.03
2023-02-22T18:00:49.883Z,98571.00
2023-02-22T18:03:25.308Z,98578.88
2023-02-22T18:05:59.962Z,98573.03
2023-02-22T18:08:30.042Z,98583.06
2023-02-22T18:10:57.076Z,98580.66
2023-02-22T18:13:27.001Z,98578.06
2023-02-22T18:16:00.074Z,98574.91
2023-02-22T18:18:27.875Z,98569.56
2023-02-22T18:20:59.422Z,98582.13
2023-02-22T18:23:31.084Z,98587.13
2023-02-22T18:26:15.765Z,98587.59
2023-02-22T18:28:43.350Z,98591.84
2023-02-22T18:31:16.539Z,98587.50
2023-02-22T18:33:46.633Z,98587.69
2023-02-22T18:36:14.685Z,98582.59
2023-02-22T18:38:43.353Z,98561.56
2023-02-22T18:41:16.937Z,98577.97
2023-02-22T18:43:46.307Z,98588.81
2023-02-22T18:46:18.222Z,98586.13
2023-02-22T18:48:52.600Z,98586.41
2023-02-22T18:51:19.538Z,98581.38
2023-02-22T18:53:50.102Z,98586.13
2023-02-22T18:56:21.880Z,98560.31
2023-02-22T18:59:00.855Z,98569.53
2023-02-22T19:01:30.003Z,98592.75
2023-02-22T19:03:57.261Z,98574.63
2023-02-22T19:06:24.322Z,98588.47
2023-02-22T19:08:51.770Z,98570.97
2023-02-22T19:11:23.780Z,98588.38
2023-02-22T19:13:54.402Z,98584.88
2023-02-22T19:16:24.094Z,98566.34
2023-02-22T19:18:54.288Z,98589.06
2023-02-22T19:21:21.730Z,98576.09
2023-02-22T19:23:49.365Z,98548.06
2023-02-22T19:26:25.363Z,98575.69
2023-02-22T19:28:55.075Z,98582.97
2023-02-22T19:31:31.951Z,98586.47
2023-02-22T19:34:05.897Z,98584.81
2023-02-22T19:36:33.102Z,98597.00
2023-02-22T19:39:02.697Z,98596.44
2023-02-22T19:41:30.840Z,98598.13
2023-02-22T19:43:58.284Z,98602.38
2023-02-22T19:46:25.550Z,98601.03
2023-02-22T19:48:55.275Z,98602.88
2023-02-22T19:51:27.907Z,98592.09
2023-02-22T19:54:02.741Z,98601.41
2023-02-22T19:56:31.243Z,98585.50
2023-02-22T19:59:12.681Z,98608.41
2023-02-22T20:01:44.105Z,98591.69
2023-02-22T20:04:18.194Z,98605.25
2023-02-22T20:06:46.705Z,98606.41
2023-02-22T20:09:17.916Z,98605.38
2023-02-22T20:11:48.456Z,98607.97
2023-02-22T20:14:25.202Z,98606.41
2023-02-22T20:16:53.718Z,98609.94
2023-02-22T20:19:22.611Z,98598.31
2023-02-22T20:21:49.762Z,98609.25
2023-02-22T20:24:18.400Z,98611.09
2023-02-22T20:26:46.874Z,98611.91
2023-02-22T20:29:14.964Z,98612.34
2023-02-22T20:31:44.375Z,98591.03
2023-02-22T20:34:11.772Z,98610.78
2023-02-22T20:36:41.527Z,98613.91
2023-02-22T20:39:13.336Z,98610.28
2023-02-22T20:41:45.829Z,98614.41
2023-02-22T20:44:16.331Z,98616.81
2023-02-22T20:46:45.037Z,98615.16
2023-02-22T20:49:17.142Z,98611.66
2023-02-22T20:51:45.590Z,98599.28
2023-02-22T20:54:13.150Z,98610.06
2023-02-22T20:56:42.885Z,98594.00
2023-02-22T20:59:13.100Z,98621.06
2023-02-22T21:01:40.464Z,98624.50
2023-02-22T21:04:10.044Z,98621.06
2023-02-22T21:06:38.984Z,98628.94
2023-02-22T21:09:08.672Z,98622.94
2023-02-22T21:11:35.802Z,98632.34
2023-02-22T21:14:03.354Z,98626.59
2023-02-22T21:16:36.484Z,98624.25
2023-02-22T21:19:07.086Z,98615.72
2023-02-22T21:21:35.290Z,98618.22
2023-02-22T21:24:02.433Z,98615.81
2023-02-22T21:26:32.873Z,98622.06
2023-02-22T21:29:03.879Z,98610.59
2023-02-22T21:31:31.689Z,98622.53
2023-02-22T21:34:00.332Z,98626.66
2023-02-22T21:36:28.578Z,98626.47
2023-02-22T21:39:03.074Z,98627.22
2023-02-22T21:41:31.164Z,98616.03
2023-02-22T21:43:59.610Z,98623.06
2023-02-22T21:46:28.982Z,98625.72
2023-02-22T21:48:58.600Z,98618.03
2023-02-22T21:51:32.036Z,98596.84
2023-02-22T21:54:03.126Z,98628.06
2023-02-22T21:56:32.345Z,98628.50
2023-02-22T21:59:15.611Z,98619.84
2023-02-22T22:01:50.196Z,98608.81
2023-02-22T22:04:22.245Z,98619.69
2023-02-22T22:06:52.267Z,98619.75
2023-02-22T22:09:21.875Z,98610.56
2023-02-22T22:11:54.796Z,98628.50
2023-02-22T22:14:24.241Z,98619.00
2023-02-22T22:16:55.917Z,98609.97
2023-02-22T22:19:23.005Z,98613.44
2023-02-22T22:21:54.021Z,98612.72
2023-02-22T22:24:22.736Z,98619.47
2023-02-22T22:26:54.434Z,98617.81
2023-02-22T22:29:24.287Z,98619.88
2023-02-22T22:31:51.886Z,98621.78
2023-02-22T22:34:19.515Z,98620.00
2023-02-22T22:36:46.532Z,98633.09
2023-02-22T22:39:13.350Z,98617.91
2023-02-22T22:41:42.233Z,98622.75
2023-02-22T22:44:09.873Z,98621.09
2023-02-22T22:46:40.036Z,98626.41
2023-02-22T22:49:13.404Z,98622.31
2023-02-22T22:51:41.309Z,98626.13
2023-02-22T22:54:11.980Z,98627.78
2023-02-22T22:56:39.240Z,98612.09
2023-02-22T22:59:07.997Z,98614.81
2023-02-22T23:01:44.421Z,98630.66
2023-02-22T23:04:16.829Z,98630.81
2023-02-22T23:06:54.414Z,98632.16
2023-02-22T23:09:29.602Z,98634.97
2023-02-22T23:12:09.027Z,98633.06
2023-02-22T23:14:45.190Z,98627.13
2023-02-22T23:17:26.782Z,98633.22
2023-02-22T23:19:53.637Z,98628.34
2023-02-22T23:22:21.238Z,98629.13
2023-02-22T23:24:48.413Z,98619.84
2023-02-22T23:27:15.436Z,98615.50
2023-02-22T23:29:46.531Z,98623.78
2023-02-22T23:32:14.272Z,98629.81
2023-02-22T23:34:41.461Z,98626.38
2023-02-22T23:37:10.957Z,98631.50
2023-02-22T23:39:38.341Z,98615.66
2023-02-22T23:42:08.650Z,98620.22
2023-02-22T23:44:35.589Z,98622.75
2023-02-22T23:47:03.840Z,98626.38
2023-02-22T23:49:37.922Z,98614.59
2023-02-22T23:52:07.096Z,98628.66
2023-02-22T23:54:40.181Z,98604.25
2023-02-22T23:57:08.833Z,98632.53
2023-02-22T23:59:40.315Z,98625.31
